DLH568 EDDF-DNMM
Flight info
| Callsign | DLH568 |
|---|---|
| Flight time | 5h 50m |
| Altitude | 37000 |
| Route | ANEKI2L/18 ANEKI Y163 NATOR DCT TRA DCT RIPUS DCT GERSA DCT SOSON DCT ODINA DCT PIDAD DCT TALEP DCT VAREK DCT ERPIN DCT ETOIL DCT CIRTA UA605 CSO/N0481F390 UR978 ERKEL/N0488F400 UT258 NANOS UB731 BUDSI BUDSI1N |
| Aircraft | B789/H-SDE1E2E3FGHIJ2J3J4J5M1RWXY/LB1D1 |
Departure
| Time | 2026-05-03 22:43 |
|---|---|
| Airport | Frankfurt Main Airport (EDDF) |
Arrival
| Time | 2026-05-04 04:33 |
|---|---|
| Airport | Murtala Muhammed International Airport (DNMM) |
| Time | Latitude | Longitude | Altitude | Speed | Heading |
|---|---|---|---|---|---|
| 2026-05-03 22:10 | 50.04650 | 8.57266 | 359 ft | 0 kts | 298° |
| 2026-05-03 22:31 | 50.04646 | 8.57275 | 351 ft | 4 kts | 298° |
| 2026-05-03 22:31 | 50.04634 | 8.57313 | 341 ft | 4 kts | 298° |
| 2026-05-03 22:31 | 50.04621 | 8.57351 | 363 ft | 4 kts | 298° |
| 2026-05-03 22:31 | 50.04608 | 8.57388 | 361 ft | 4 kts | 298° |
| 2026-05-03 22:32 | 50.04599 | 8.57417 | 361 ft | 2 kts | 276° |
| 2026-05-03 22:32 | 50.04600 | 8.57434 | 361 ft | 2 kts | 252° |
| 2026-05-03 22:32 | 50.04604 | 8.57451 | 361 ft | 2 kts | 248° |
| 2026-05-03 22:32 | 50.04605 | 8.57455 | 361 ft | 0 kts | 248° |
| 2026-05-03 22:34 | 50.04605 | 8.57454 | 361 ft | 0 kts | 248° |
| 2026-05-03 22:35 | 50.04596 | 8.57421 | 361 ft | 8 kts | 248° |
| 2026-05-03 22:35 | 50.04569 | 8.57313 | 359 ft | 12 kts | 250° |
| 2026-05-03 22:35 | 50.04564 | 8.57292 | 356 ft | 12 kts | 250° |
| 2026-05-03 22:36 | 50.04557 | 8.57262 | 356 ft | 12 kts | 249° |
| 2026-05-03 22:36 | 50.04528 | 8.57138 | 359 ft | 12 kts | 249° |
| 2026-05-03 22:36 | 50.04497 | 8.57010 | 356 ft | 13 kts | 250° |
| 2026-05-03 22:36 | 50.04461 | 8.56855 | 355 ft | 16 kts | 250° |
| 2026-05-03 22:37 | 50.04422 | 8.56690 | 358 ft | 16 kts | 250° |
| 2026-05-03 22:37 | 50.04381 | 8.56518 | 358 ft | 19 kts | 249° |
| 2026-05-03 22:37 | 50.04332 | 8.56315 | 352 ft | 20 kts | 250° |
| 2026-05-03 22:37 | 50.04283 | 8.56109 | 359 ft | 20 kts | 250° |
| 2026-05-03 22:38 | 50.04234 | 8.55906 | 355 ft | 20 kts | 250° |
| 2026-05-03 22:38 | 50.04186 | 8.55704 | 355 ft | 20 kts | 249° |
| 2026-05-03 22:38 | 50.04132 | 8.55480 | 354 ft | 22 kts | 249° |
| 2026-05-03 22:38 | 50.04073 | 8.55238 | 356 ft | 24 kts | 249° |
| 2026-05-03 22:39 | 50.04013 | 8.54993 | 356 ft | 24 kts | 249° |
| 2026-05-03 22:39 | 50.03956 | 8.54750 | 355 ft | 24 kts | 250° |
| 2026-05-03 22:39 | 50.03897 | 8.54498 | 356 ft | 26 kts | 249° |
| 2026-05-03 22:39 | 50.03811 | 8.54249 | 359 ft | 26 kts | 243° |
| 2026-05-03 22:40 | 50.03747 | 8.53993 | 359 ft | 25 kts | 249° |
| 2026-05-03 22:40 | 50.03685 | 8.53739 | 359 ft | 25 kts | 249° |
| 2026-05-03 22:40 | 50.03623 | 8.53488 | 356 ft | 26 kts | 249° |
| 2026-05-03 22:40 | 50.03555 | 8.53206 | 354 ft | 28 kts | 250° |
| 2026-05-03 22:41 | 50.03489 | 8.52928 | 358 ft | 27 kts | 248° |
| 2026-05-03 22:41 | 50.03428 | 8.52700 | 360 ft | 15 kts | 249° |
| 2026-05-03 22:41 | 50.03414 | 8.52607 | 356 ft | 4 kts | 242° |
| 2026-05-03 22:41 | 50.03392 | 8.52590 | 358 ft | 1 kts | 180° |
| 2026-05-03 22:42 | 50.03372 | 8.52594 | 359 ft | 7 kts | 175° |
| 2026-05-03 22:42 | 50.03260 | 8.52595 | 358 ft | 27 kts | 180° |
| 2026-05-03 22:42 | 50.02916 | 8.52598 | 359 ft | 75 kts | 180° |
| 2026-05-03 22:42 | 50.02237 | 8.52606 | 354 ft | 122 kts | 180° |
| 2026-05-03 22:43 | 50.01222 | 8.52616 | 363 ft | 164 kts | 179° |
| 2026-05-03 22:43 | 50.00029 | 8.52655 | 746 ft | 170 kts | 175° |
| 2026-05-03 22:43 | 49.98870 | 8.52739 | 1247 ft | 170 kts | 178° |
| 2026-05-03 22:43 | 49.97685 | 8.52816 | 1689 ft | 173 kts | 181° |
| 2026-05-03 22:44 | 49.96464 | 8.52883 | 2096 ft | 179 kts | 181° |
| 2026-05-03 22:44 | 49.95150 | 8.52954 | 2260 ft | 198 kts | 181° |
| 2026-05-03 22:44 | 49.93711 | 8.53034 | 2433 ft | 218 kts | 180° |
| 2026-05-03 22:44 | 49.92186 | 8.53135 | 2908 ft | 219 kts | 180° |
| 2026-05-03 22:45 | 49.90680 | 8.53275 | 3539 ft | 223 kts | 180° |
| 2026-05-03 22:45 | 49.89114 | 8.53392 | 4112 ft | 225 kts | 180° |
| 2026-05-03 22:45 | 49.87542 | 8.53499 | 4671 ft | 228 kts | 180° |
| 2026-05-03 22:45 | 49.85956 | 8.53607 | 5262 ft | 229 kts | 180° |
| 2026-05-03 22:46 | 49.84363 | 8.53718 | 5866 ft | 229 kts | 180° |
| 2026-05-03 22:46 | 49.82823 | 8.53826 | 6447 ft | 230 kts | 180° |
| 2026-05-03 22:46 | 49.81214 | 8.53938 | 7002 ft | 231 kts | 180° |
| 2026-05-03 22:46 | 49.79607 | 8.54049 | 7559 ft | 232 kts | 180° |
| 2026-05-03 22:47 | 49.77993 | 8.54137 | 8089 ft | 232 kts | 185° |
| 2026-05-03 22:47 | 49.76322 | 8.53897 | 8184 ft | 253 kts | 187° |
| 2026-05-03 22:47 | 49.74502 | 8.53652 | 8462 ft | 266 kts | 187° |
| 2026-05-03 22:47 | 49.72661 | 8.53419 | 9159 ft | 266 kts | 187° |
| 2026-05-03 22:48 | 49.70802 | 8.53175 | 9761 ft | 268 kts | 187° |
| 2026-05-03 22:48 | 49.68928 | 8.52924 | 10194 ft | 276 kts | 187° |
| 2026-05-03 22:48 | 49.66931 | 8.52655 | 10223 ft | 299 kts | 187° |
| 2026-05-03 22:48 | 49.64783 | 8.52371 | 10273 ft | 321 kts | 187° |
| 2026-05-03 22:49 | 49.62492 | 8.52071 | 10467 ft | 336 kts | 187° |
| 2026-05-03 22:49 | 49.60159 | 8.51768 | 11119 ft | 337 kts | 187° |
| 2026-05-03 22:49 | 49.57811 | 8.51459 | 11650 ft | 341 kts | 187° |
| 2026-05-03 22:49 | 49.55436 | 8.51145 | 12218 ft | 344 kts | 187° |
| 2026-05-03 22:50 | 49.53039 | 8.50829 | 12758 ft | 347 kts | 187° |
| 2026-05-03 22:50 | 49.50620 | 8.50512 | 13310 ft | 350 kts | 187° |
| 2026-05-03 22:50 | 49.48214 | 8.50197 | 13839 ft | 354 kts | 187° |
| 2026-05-03 22:50 | 49.45748 | 8.49873 | 14307 ft | 357 kts | 187° |
| 2026-05-03 22:51 | 49.43268 | 8.49549 | 14780 ft | 359 kts | 187° |
| 2026-05-03 22:51 | 49.40768 | 8.49222 | 15266 ft | 362 kts | 187° |
| 2026-05-03 22:51 | 49.38256 | 8.48894 | 15745 ft | 364 kts | 186° |
| 2026-05-03 22:51 | 49.35720 | 8.48563 | 16210 ft | 367 kts | 186° |
| 2026-05-03 22:52 | 49.33169 | 8.48230 | 16682 ft | 369 kts | 186° |
| 2026-05-03 22:52 | 49.30604 | 8.47897 | 17151 ft | 371 kts | 186° |
| 2026-05-03 22:52 | 49.28022 | 8.47562 | 17607 ft | 374 kts | 186° |
| 2026-05-03 22:52 | 49.25424 | 8.47225 | 18082 ft | 376 kts | 186° |
| 2026-05-03 22:53 | 49.22806 | 8.46883 | 18493 ft | 378 kts | 186° |
| 2026-05-03 22:53 | 49.20179 | 8.46540 | 18882 ft | 381 kts | 186° |
| 2026-05-03 22:53 | 49.17532 | 8.46197 | 19244 ft | 383 kts | 186° |
| 2026-05-03 22:53 | 49.14867 | 8.45852 | 19619 ft | 386 kts | 186° |
| 2026-05-03 22:54 | 49.12188 | 8.45504 | 19972 ft | 388 kts | 186° |
| 2026-05-03 22:54 | 49.09486 | 8.45154 | 20335 ft | 390 kts | 186° |
| 2026-05-03 22:54 | 49.06774 | 8.44794 | 20686 ft | 392 kts | 188° |
| 2026-05-03 22:54 | 49.04108 | 8.43924 | 20970 ft | 393 kts | 195° |
| 2026-05-03 22:55 | 49.01430 | 8.42994 | 21313 ft | 396 kts | 193° |
| 2026-05-03 22:55 | 48.98731 | 8.42104 | 21648 ft | 398 kts | 194° |
| 2026-05-03 22:55 | 48.96020 | 8.41164 | 21978 ft | 401 kts | 194° |
| 2026-05-03 22:55 | 48.93298 | 8.40196 | 22302 ft | 403 kts | 194° |
| 2026-05-03 22:56 | 48.90556 | 8.39238 | 22637 ft | 406 kts | 194° |
| 2026-05-03 22:56 | 48.87796 | 8.38290 | 22943 ft | 408 kts | 194° |
| 2026-05-03 22:56 | 48.85021 | 8.37333 | 23242 ft | 411 kts | 194° |
| 2026-05-03 22:56 | 48.82225 | 8.36361 | 23566 ft | 413 kts | 194° |
| 2026-05-03 22:57 | 48.79415 | 8.35387 | 23832 ft | 415 kts | 194° |
| 2026-05-03 22:57 | 48.76599 | 8.34401 | 24100 ft | 417 kts | 195° |
| 2026-05-03 22:57 | 48.73773 | 8.33350 | 24324 ft | 419 kts | 195° |
| 2026-05-03 22:57 | 48.70937 | 8.32288 | 24582 ft | 421 kts | 195° |
| 2026-05-03 22:58 | 48.68079 | 8.31251 | 24836 ft | 423 kts | 195° |
| 2026-05-03 22:58 | 48.65204 | 8.30217 | 25069 ft | 425 kts | 195° |
| 2026-05-03 22:58 | 48.62328 | 8.29170 | 25317 ft | 427 kts | 195° |
| 2026-05-03 22:58 | 48.59432 | 8.28111 | 25566 ft | 429 kts | 195° |
| 2026-05-03 22:59 | 48.56522 | 8.27053 | 25787 ft | 431 kts | 195° |
| 2026-05-03 22:59 | 48.53600 | 8.25997 | 26038 ft | 433 kts | 195° |
| 2026-05-03 22:59 | 48.50654 | 8.25016 | 26253 ft | 435 kts | 189° |
| 2026-05-03 22:59 | 48.47618 | 8.24836 | 26468 ft | 440 kts | 177° |
| 2026-05-03 23:00 | 48.45605 | 8.25209 | 26621 ft | 442 kts | 173° |
| 2026-05-03 23:00 | 48.42552 | 8.25933 | 26797 ft | 445 kts | 173° |
| 2026-05-03 23:00 | 48.39495 | 8.26686 | 27046 ft | 447 kts | 172° |
| 2026-05-03 23:00 | 48.36421 | 8.27445 | 27258 ft | 448 kts | 172° |
| 2026-05-03 23:01 | 48.33334 | 8.28189 | 27486 ft | 450 kts | 173° |
| 2026-05-03 23:01 | 48.30233 | 8.28931 | 27698 ft | 452 kts | 173° |
| 2026-05-03 23:01 | 48.27121 | 8.29684 | 27931 ft | 454 kts | 172° |
| 2026-05-03 23:01 | 48.23986 | 8.30445 | 28149 ft | 457 kts | 172° |
| 2026-05-03 23:02 | 48.20846 | 8.31202 | 28383 ft | 458 kts | 173° |
| 2026-05-03 23:02 | 48.17690 | 8.31959 | 28604 ft | 461 kts | 172° |
| 2026-05-03 23:02 | 48.14513 | 8.32724 | 28831 ft | 463 kts | 172° |
| 2026-05-03 23:02 | 48.11328 | 8.33501 | 29072 ft | 465 kts | 172° |
| 2026-05-03 23:03 | 48.08129 | 8.34281 | 29315 ft | 467 kts | 172° |
| 2026-05-03 23:03 | 48.04921 | 8.35056 | 29536 ft | 469 kts | 172° |
| 2026-05-03 23:03 | 48.01680 | 8.35837 | 29785 ft | 471 kts | 172° |
| 2026-05-03 23:03 | 47.98443 | 8.36619 | 30012 ft | 474 kts | 172° |
| 2026-05-03 23:04 | 47.95175 | 8.37409 | 30288 ft | 475 kts | 172° |
| 2026-05-03 23:04 | 47.91933 | 8.38191 | 30704 ft | 471 kts | 172° |
| 2026-05-03 23:04 | 47.88668 | 8.38972 | 30682 ft | 479 kts | 172° |
| 2026-05-03 23:04 | 47.85478 | 8.39740 | 30938 ft | 479 kts | 172° |
| 2026-05-03 23:05 | 47.82178 | 8.40535 | 31156 ft | 481 kts | 172° |
| 2026-05-03 23:05 | 47.78865 | 8.41328 | 31392 ft | 483 kts | 172° |
| 2026-05-03 23:05 | 47.75543 | 8.42121 | 31611 ft | 485 kts | 172° |
| 2026-05-03 23:05 | 47.72212 | 8.42917 | 31831 ft | 486 kts | 172° |
| 2026-05-03 23:06 | 47.69039 | 8.43667 | 32039 ft | 487 kts | 174° |
| 2026-05-03 23:06 | 47.65658 | 8.44172 | 32172 ft | 490 kts | 176° |
| 2026-05-03 23:06 | 47.62265 | 8.44675 | 32432 ft | 491 kts | 176° |
| 2026-05-03 23:06 | 47.58856 | 8.45194 | 32643 ft | 493 kts | 176° |
| 2026-05-03 23:07 | 47.55440 | 8.45699 | 32881 ft | 495 kts | 176° |
| 2026-05-03 23:07 | 47.52225 | 8.46164 | 33121 ft | 496 kts | 176° |
| 2026-05-03 23:07 | 47.48796 | 8.46665 | 33487 ft | 495 kts | 176° |
| 2026-05-03 23:07 | 47.45368 | 8.47173 | 33820 ft | 494 kts | 176° |
| 2026-05-03 23:08 | 47.41946 | 8.47677 | 34151 ft | 494 kts | 176° |
| 2026-05-03 23:08 | 47.38540 | 8.48174 | 34477 ft | 492 kts | 176° |
| 2026-05-03 23:08 | 47.35132 | 8.48671 | 34780 ft | 491 kts | 176° |
| 2026-05-03 23:08 | 47.31734 | 8.49168 | 35103 ft | 490 kts | 176° |
| 2026-05-03 23:09 | 47.28356 | 8.49662 | 35420 ft | 489 kts | 176° |
| 2026-05-03 23:09 | 47.24967 | 8.50155 | 35733 ft | 487 kts | 176° |
| 2026-05-03 23:09 | 47.21594 | 8.50646 | 36046 ft | 486 kts | 176° |
| 2026-05-03 23:09 | 47.18231 | 8.51136 | 36333 ft | 485 kts | 176° |
| 2026-05-03 23:10 | 47.14876 | 8.51625 | 36632 ft | 484 kts | 176° |
| 2026-05-03 23:10 | 47.11530 | 8.52111 | 36942 ft | 483 kts | 176° |
| 2026-05-03 23:10 | 47.08181 | 8.52596 | 37070 ft | 486 kts | 176° |
| 2026-05-03 23:11 | 47.01457 | 8.53570 | 37063 ft | 483 kts | 176° |
| 2026-05-03 23:11 | 46.94792 | 8.54531 | 37069 ft | 481 kts | 176° |
| 2026-05-03 23:12 | 46.88128 | 8.55490 | 37080 ft | 481 kts | 176° |
| 2026-05-03 23:12 | 46.81498 | 8.56442 | 37081 ft | 482 kts | 176° |
| 2026-05-03 23:13 | 46.74828 | 8.57397 | 37090 ft | 482 kts | 176° |
| 2026-05-03 23:13 | 46.68152 | 8.58350 | 37097 ft | 482 kts | 176° |
| 2026-05-03 23:14 | 46.61479 | 8.59300 | 37123 ft | 482 kts | 176° |
| 2026-05-03 23:14 | 46.54796 | 8.60250 | 37128 ft | 483 kts | 176° |
| 2026-05-03 23:15 | 46.48116 | 8.61197 | 37132 ft | 482 kts | 176° |
| 2026-05-03 23:15 | 46.41439 | 8.62140 | 37127 ft | 482 kts | 176° |
| 2026-05-03 23:16 | 46.34763 | 8.63081 | 37132 ft | 482 kts | 176° |
| 2026-05-03 23:16 | 46.28091 | 8.64020 | 37120 ft | 482 kts | 176° |
| 2026-05-03 23:17 | 46.21418 | 8.64957 | 37127 ft | 482 kts | 176° |
| 2026-05-03 23:17 | 46.14751 | 8.65889 | 37130 ft | 482 kts | 176° |
| 2026-05-03 23:18 | 46.08123 | 8.66549 | 37143 ft | 480 kts | 181° |
| 2026-05-03 23:18 | 46.01434 | 8.66665 | 37121 ft | 481 kts | 181° |
| 2026-05-03 23:19 | 45.94746 | 8.66807 | 37128 ft | 481 kts | 181° |
| 2026-05-03 23:19 | 45.88055 | 8.66935 | 37117 ft | 480 kts | 181° |
| 2026-05-03 23:20 | 45.81379 | 8.67069 | 37119 ft | 480 kts | 181° |
| 2026-05-03 23:20 | 45.74741 | 8.67199 | 37121 ft | 480 kts | 181° |
| 2026-05-03 23:21 | 45.68015 | 8.67332 | 37129 ft | 481 kts | 181° |
| 2026-05-03 23:21 | 45.61326 | 8.67463 | 37126 ft | 480 kts | 181° |
| 2026-05-03 23:22 | 45.51313 | 8.67659 | 37125 ft | 480 kts | 181° |
| 2026-05-03 23:22 | 45.44680 | 8.67788 | 37120 ft | 480 kts | 181° |
| 2026-05-03 23:23 | 45.37956 | 8.67919 | 37103 ft | 481 kts | 181° |
| 2026-05-03 23:23 | 45.31311 | 8.68049 | 37100 ft | 481 kts | 181° |
| 2026-05-03 23:24 | 45.24623 | 8.68178 | 37095 ft | 481 kts | 181° |
| 2026-05-03 23:24 | 45.17934 | 8.68308 | 37094 ft | 480 kts | 181° |
| 2026-05-03 23:25 | 45.11247 | 8.68436 | 37102 ft | 481 kts | 181° |
| 2026-05-03 23:25 | 45.04561 | 8.68565 | 37089 ft | 480 kts | 181° |
| 2026-05-03 23:26 | 44.97872 | 8.68693 | 37111 ft | 481 kts | 181° |
| 2026-05-03 23:26 | 44.91182 | 8.68822 | 37109 ft | 481 kts | 181° |
| 2026-05-03 23:27 | 44.84487 | 8.68950 | 37110 ft | 481 kts | 181° |
| 2026-05-03 23:27 | 44.77798 | 8.69077 | 37113 ft | 481 kts | 182° |
| 2026-05-03 23:28 | 44.71108 | 8.69204 | 37126 ft | 480 kts | 182° |
| 2026-05-03 23:28 | 44.64434 | 8.69333 | 37131 ft | 476 kts | 182° |
| 2026-05-03 23:29 | 44.57918 | 8.69455 | 37146 ft | 467 kts | 182° |
| 2026-05-03 23:29 | 44.51392 | 8.69576 | 37155 ft | 470 kts | 182° |
| 2026-05-03 23:30 | 44.44854 | 8.69702 | 37163 ft | 470 kts | 182° |
| 2026-05-03 23:30 | 44.38311 | 8.69823 | 37159 ft | 470 kts | 182° |
| 2026-05-03 23:31 | 44.31774 | 8.69947 | 37133 ft | 470 kts | 182° |
| 2026-05-03 23:31 | 44.25231 | 8.70069 | 37129 ft | 470 kts | 182° |
| 2026-05-03 23:32 | 44.18699 | 8.70191 | 37131 ft | 469 kts | 182° |
| 2026-05-03 23:32 | 44.12172 | 8.70312 | 37125 ft | 469 kts | 182° |
| 2026-05-03 23:33 | 44.05652 | 8.70434 | 37126 ft | 469 kts | 182° |
| 2026-05-03 23:33 | 43.99123 | 8.70555 | 37125 ft | 469 kts | 182° |
| 2026-05-03 23:34 | 43.92638 | 8.70675 | 37120 ft | 469 kts | 182° |
| 2026-05-03 23:34 | 43.86120 | 8.70795 | 37115 ft | 469 kts | 182° |
| 2026-05-03 23:35 | 43.79597 | 8.70915 | 37113 ft | 469 kts | 182° |
| 2026-05-03 23:35 | 43.73082 | 8.71036 | 37110 ft | 468 kts | 182° |
| 2026-05-03 23:36 | 43.66574 | 8.71155 | 37113 ft | 468 kts | 182° |
| 2026-05-03 23:36 | 43.60070 | 8.71255 | 37109 ft | 467 kts | 183° |
| 2026-05-03 23:37 | 43.53589 | 8.71206 | 37103 ft | 466 kts | 183° |
| 2026-05-03 23:37 | 43.47139 | 8.70819 | 37141 ft | 461 kts | 194° |
| 2026-05-03 23:38 | 43.41141 | 8.67907 | 37123 ft | 457 kts | 207° |
| 2026-05-03 23:38 | 43.35376 | 8.64196 | 37117 ft | 457 kts | 207° |
| 2026-05-03 23:39 | 43.29623 | 8.60460 | 37120 ft | 457 kts | 207° |
| 2026-05-03 23:39 | 43.23867 | 8.56753 | 37119 ft | 457 kts | 207° |
| 2026-05-03 23:40 | 43.18118 | 8.53046 | 37119 ft | 457 kts | 207° |
| 2026-05-03 23:40 | 43.12387 | 8.49365 | 37117 ft | 456 kts | 207° |
| 2026-05-03 23:41 | 43.06638 | 8.45677 | 37118 ft | 456 kts | 207° |
| 2026-05-03 23:41 | 43.00898 | 8.42003 | 37112 ft | 456 kts | 207° |
| 2026-05-03 23:42 | 42.95157 | 8.38336 | 37113 ft | 455 kts | 207° |
| 2026-05-03 23:42 | 42.89429 | 8.34685 | 37105 ft | 454 kts | 207° |
| 2026-05-03 23:43 | 42.83696 | 8.31038 | 37104 ft | 455 kts | 207° |
| 2026-05-03 23:43 | 42.77962 | 8.27399 | 37106 ft | 455 kts | 207° |
| 2026-05-03 23:44 | 42.72232 | 8.23769 | 37099 ft | 454 kts | 207° |
| 2026-05-03 23:44 | 42.66498 | 8.20144 | 37102 ft | 454 kts | 207° |
| 2026-05-03 23:45 | 42.60764 | 8.16526 | 37097 ft | 454 kts | 207° |
| 2026-05-03 23:45 | 42.55028 | 8.12914 | 37102 ft | 454 kts | 207° |
| 2026-05-03 23:46 | 42.49291 | 8.09310 | 37099 ft | 455 kts | 207° |
| 2026-05-03 23:46 | 42.43551 | 8.05711 | 37103 ft | 455 kts | 207° |
| 2026-05-03 23:47 | 42.37808 | 8.02116 | 37099 ft | 455 kts | 207° |
| 2026-05-03 23:47 | 42.32099 | 7.98551 | 37098 ft | 455 kts | 206° |
| 2026-05-03 23:48 | 42.27199 | 7.95808 | 37113 ft | 456 kts | 204° |
| 2026-05-03 23:48 | 42.21328 | 7.92545 | 37109 ft | 457 kts | 204° |
| 2026-05-03 23:49 | 42.15436 | 7.89320 | 37102 ft | 457 kts | 204° |
| 2026-05-03 23:49 | 42.09546 | 7.86081 | 37098 ft | 457 kts | 204° |
| 2026-05-03 23:50 | 42.03660 | 7.82860 | 37092 ft | 457 kts | 204° |
| 2026-05-03 23:50 | 41.97764 | 7.79637 | 37092 ft | 457 kts | 204° |
| 2026-05-03 23:51 | 41.91867 | 7.76421 | 37092 ft | 458 kts | 204° |
| 2026-05-03 23:51 | 41.85952 | 7.73201 | 37090 ft | 459 kts | 204° |
| 2026-05-03 23:52 | 41.80077 | 7.70009 | 37089 ft | 459 kts | 204° |
| 2026-05-03 23:52 | 41.74160 | 7.66801 | 37087 ft | 459 kts | 204° |
| 2026-05-03 23:53 | 41.68235 | 7.63595 | 37087 ft | 460 kts | 204° |
| 2026-05-03 23:53 | 41.62301 | 7.60390 | 37085 ft | 460 kts | 204° |
| 2026-05-03 23:54 | 41.56291 | 7.57489 | 37120 ft | 462 kts | 195° |
| 2026-05-03 23:54 | 41.49938 | 7.55974 | 37100 ft | 465 kts | 193° |
| 2026-05-03 23:55 | 41.43560 | 7.54516 | 37091 ft | 465 kts | 193° |
| 2026-05-03 23:55 | 41.37183 | 7.53045 | 37092 ft | 465 kts | 193° |
| 2026-05-03 23:56 | 41.30798 | 7.51584 | 37090 ft | 466 kts | 193° |
| 2026-05-03 23:56 | 41.24403 | 7.50119 | 37082 ft | 467 kts | 193° |
| 2026-05-03 23:57 | 41.17992 | 7.48656 | 37081 ft | 468 kts | 193° |
| 2026-05-03 23:57 | 41.11570 | 7.47192 | 37093 ft | 468 kts | 193° |
| 2026-05-03 23:58 | 41.05145 | 7.45731 | 37086 ft | 468 kts | 194° |
| 2026-05-03 23:58 | 40.98713 | 7.44270 | 37094 ft | 469 kts | 194° |
| 2026-05-03 23:59 | 40.92272 | 7.42811 | 37097 ft | 470 kts | 194° |
| 2026-05-03 23:59 | 40.85822 | 7.41353 | 37095 ft | 470 kts | 194° |
| 2026-05-04 00:00 | 40.79370 | 7.39897 | 37093 ft | 471 kts | 194° |
| 2026-05-04 00:00 | 40.72903 | 7.38440 | 37091 ft | 472 kts | 194° |
| 2026-05-04 00:01 | 40.66469 | 7.36994 | 37085 ft | 472 kts | 195° |
| 2026-05-04 00:01 | 40.59989 | 7.35540 | 37086 ft | 473 kts | 195° |
| 2026-05-04 00:02 | 40.53492 | 7.34086 | 37088 ft | 474 kts | 195° |
| 2026-05-04 00:02 | 40.46981 | 7.32631 | 37086 ft | 475 kts | 195° |
| 2026-05-04 00:03 | 40.40475 | 7.31180 | 37079 ft | 474 kts | 195° |
| 2026-05-04 00:03 | 40.33969 | 7.29732 | 37077 ft | 475 kts | 195° |
| 2026-05-04 00:04 | 40.27454 | 7.28285 | 37085 ft | 475 kts | 196° |
| 2026-05-04 00:04 | 40.20933 | 7.26839 | 37079 ft | 475 kts | 196° |
| 2026-05-04 00:05 | 40.14411 | 7.25396 | 37081 ft | 475 kts | 196° |
| 2026-05-04 00:05 | 40.07901 | 7.23958 | 37077 ft | 474 kts | 196° |
| 2026-05-04 00:06 | 40.01403 | 7.22526 | 37073 ft | 473 kts | 196° |
| 2026-05-04 00:06 | 39.94909 | 7.21096 | 37074 ft | 474 kts | 196° |
| 2026-05-04 00:07 | 39.88407 | 7.19670 | 37071 ft | 474 kts | 196° |
| 2026-05-04 00:07 | 39.81914 | 7.18247 | 37071 ft | 473 kts | 197° |
| 2026-05-04 00:08 | 39.75410 | 7.16823 | 37071 ft | 474 kts | 197° |
| 2026-05-04 00:08 | 39.68862 | 7.15584 | 37079 ft | 476 kts | 195° |
| 2026-05-04 00:09 | 39.62339 | 7.14380 | 37073 ft | 477 kts | 195° |
| 2026-05-04 00:09 | 39.55761 | 7.13222 | 37069 ft | 477 kts | 195° |
| 2026-05-04 00:10 | 39.49178 | 7.12037 | 37067 ft | 478 kts | 195° |
| 2026-05-04 00:10 | 39.42577 | 7.10866 | 37059 ft | 478 kts | 195° |
| 2026-05-04 00:11 | 39.35988 | 7.09693 | 37057 ft | 477 kts | 195° |
| 2026-05-04 00:11 | 39.29408 | 7.08525 | 37056 ft | 478 kts | 195° |
| 2026-05-04 00:12 | 39.22818 | 7.07359 | 37052 ft | 478 kts | 195° |
| 2026-05-04 00:12 | 39.16236 | 7.06194 | 37052 ft | 478 kts | 195° |
| 2026-05-04 00:13 | 39.09642 | 7.05032 | 37054 ft | 478 kts | 195° |
| 2026-05-04 00:13 | 39.03059 | 7.03872 | 37060 ft | 477 kts | 195° |
| 2026-05-04 00:14 | 38.96514 | 7.02742 | 37056 ft | 478 kts | 194° |
| 2026-05-04 00:14 | 38.89907 | 7.01704 | 37046 ft | 478 kts | 195° |
| 2026-05-04 00:15 | 38.83307 | 7.00613 | 37047 ft | 478 kts | 195° |
| 2026-05-04 00:15 | 38.76705 | 6.99553 | 37049 ft | 478 kts | 195° |
| 2026-05-04 00:16 | 38.70106 | 6.98481 | 37052 ft | 478 kts | 195° |
| 2026-05-04 00:16 | 38.63501 | 6.97417 | 37049 ft | 478 kts | 195° |
| 2026-05-04 00:17 | 38.56902 | 6.96353 | 37047 ft | 478 kts | 195° |
| 2026-05-04 00:17 | 38.50288 | 6.95289 | 37044 ft | 479 kts | 195° |
| 2026-05-04 00:18 | 38.43684 | 6.94230 | 37044 ft | 478 kts | 195° |
| 2026-05-04 00:18 | 38.37077 | 6.93170 | 37062 ft | 478 kts | 195° |
| 2026-05-04 00:19 | 38.30469 | 6.92114 | 37045 ft | 479 kts | 195° |
| 2026-05-04 00:19 | 38.23862 | 6.91059 | 37045 ft | 478 kts | 195° |
| 2026-05-04 00:20 | 38.17256 | 6.90006 | 37050 ft | 479 kts | 195° |
| 2026-05-04 00:20 | 38.10644 | 6.88955 | 37050 ft | 479 kts | 195° |
| 2026-05-04 00:21 | 38.04036 | 6.87905 | 37039 ft | 479 kts | 195° |
| 2026-05-04 00:21 | 37.97421 | 6.86857 | 37039 ft | 479 kts | 195° |
| 2026-05-04 00:22 | 37.90801 | 6.85809 | 37039 ft | 480 kts | 195° |
| 2026-05-04 00:22 | 37.84178 | 6.84764 | 37039 ft | 479 kts | 195° |
| 2026-05-04 00:23 | 37.77556 | 6.83719 | 37040 ft | 480 kts | 195° |
| 2026-05-04 00:23 | 37.70923 | 6.82676 | 37035 ft | 480 kts | 195° |
| 2026-05-04 00:24 | 37.64302 | 6.81636 | 37032 ft | 480 kts | 195° |
| 2026-05-04 00:24 | 37.57676 | 6.80598 | 37025 ft | 480 kts | 195° |
| 2026-05-04 00:25 | 37.51043 | 6.79559 | 37028 ft | 480 kts | 195° |
| 2026-05-04 00:25 | 37.44411 | 6.78524 | 37032 ft | 480 kts | 195° |
| 2026-05-04 00:26 | 37.37787 | 6.77490 | 37026 ft | 480 kts | 195° |
| 2026-05-04 00:26 | 37.31160 | 6.76459 | 37038 ft | 480 kts | 195° |
| 2026-05-04 00:27 | 37.24578 | 6.75435 | 37030 ft | 480 kts | 195° |
| 2026-05-04 00:27 | 37.17912 | 6.74402 | 37030 ft | 479 kts | 195° |
| 2026-05-04 00:28 | 37.11343 | 6.73385 | 37032 ft | 478 kts | 195° |
| 2026-05-04 00:28 | 37.04740 | 6.72364 | 37034 ft | 478 kts | 195° |
| 2026-05-04 00:29 | 36.98134 | 6.71345 | 37040 ft | 478 kts | 195° |
| 2026-05-04 00:29 | 36.91528 | 6.70328 | 37049 ft | 478 kts | 195° |
| 2026-05-04 00:30 | 36.84924 | 6.69311 | 37048 ft | 479 kts | 195° |
| 2026-05-04 00:30 | 36.78320 | 6.68298 | 37055 ft | 478 kts | 195° |
| 2026-05-04 00:31 | 36.71713 | 6.67286 | 37064 ft | 479 kts | 195° |
| 2026-05-04 00:31 | 36.65105 | 6.66276 | 37069 ft | 478 kts | 195° |
| 2026-05-04 00:32 | 36.58502 | 6.65266 | 37089 ft | 479 kts | 195° |
| 2026-05-04 00:32 | 36.51898 | 6.64261 | 37119 ft | 478 kts | 195° |
| 2026-05-04 00:33 | 36.41975 | 6.62751 | 37140 ft | 479 kts | 195° |
| 2026-05-04 00:34 | 36.35372 | 6.61749 | 37154 ft | 478 kts | 195° |
| 2026-05-04 00:34 | 36.28787 | 6.60914 | 37169 ft | 485 kts | 187° |
| 2026-05-04 00:35 | 36.21959 | 6.61291 | 37162 ft | 488 kts | 185° |
| 2026-05-04 00:35 | 36.16323 | 6.61663 | 37148 ft | 488 kts | 185° |
| 2026-05-04 00:36 | 36.09543 | 6.62081 | 37134 ft | 488 kts | 185° |
| 2026-05-04 00:36 | 36.02772 | 6.62515 | 37131 ft | 487 kts | 185° |
| 2026-05-04 00:37 | 35.96008 | 6.62938 | 37133 ft | 486 kts | 185° |
| 2026-05-04 00:37 | 35.89248 | 6.63364 | 37135 ft | 487 kts | 185° |
| 2026-05-04 00:38 | 35.82488 | 6.63789 | 37139 ft | 486 kts | 185° |
| 2026-05-04 00:38 | 35.75720 | 6.64212 | 37144 ft | 487 kts | 185° |
| 2026-05-04 00:39 | 35.68953 | 6.64638 | 37145 ft | 487 kts | 185° |
| 2026-05-04 00:39 | 35.62187 | 6.65059 | 37147 ft | 487 kts | 185° |
| 2026-05-04 00:40 | 35.55424 | 6.65482 | 37144 ft | 487 kts | 185° |
| 2026-05-04 00:40 | 35.48700 | 6.65899 | 37147 ft | 487 kts | 185° |
| 2026-05-04 00:41 | 35.41925 | 6.66322 | 37155 ft | 488 kts | 185° |
| 2026-05-04 00:41 | 35.35139 | 6.66742 | 37159 ft | 488 kts | 185° |
| 2026-05-04 00:42 | 35.28369 | 6.67163 | 37177 ft | 487 kts | 185° |
| 2026-05-04 00:42 | 35.21585 | 6.67581 | 37164 ft | 488 kts | 185° |
| 2026-05-04 00:43 | 35.14797 | 6.68001 | 37166 ft | 489 kts | 185° |
| 2026-05-04 00:43 | 35.08008 | 6.68420 | 37159 ft | 488 kts | 185° |
| 2026-05-04 00:44 | 35.01224 | 6.68837 | 37160 ft | 488 kts | 185° |
| 2026-05-04 00:44 | 34.94428 | 6.69254 | 37155 ft | 489 kts | 185° |
| 2026-05-04 00:45 | 34.87627 | 6.69672 | 37145 ft | 489 kts | 185° |
| 2026-05-04 00:45 | 34.80842 | 6.70088 | 37136 ft | 488 kts | 185° |
| 2026-05-04 00:46 | 34.74059 | 6.70508 | 37127 ft | 488 kts | 184° |
| 2026-05-04 00:46 | 34.67284 | 6.70932 | 37126 ft | 487 kts | 185° |
| 2026-05-04 00:47 | 34.60519 | 6.71350 | 37113 ft | 487 kts | 184° |
| 2026-05-04 00:47 | 34.53748 | 6.71771 | 37112 ft | 487 kts | 184° |
| 2026-05-04 00:48 | 34.46967 | 6.72191 | 37107 ft | 488 kts | 184° |
| 2026-05-04 00:48 | 34.40173 | 6.72611 | 37108 ft | 489 kts | 184° |
| 2026-05-04 00:49 | 34.33380 | 6.73031 | 37104 ft | 489 kts | 184° |
| 2026-05-04 00:49 | 34.26582 | 6.73450 | 37105 ft | 489 kts | 184° |
| 2026-05-04 00:50 | 34.19829 | 6.73866 | 37100 ft | 489 kts | 184° |
| 2026-05-04 00:50 | 34.12991 | 6.74286 | 37106 ft | 488 kts | 184° |
| 2026-05-04 00:51 | 34.06212 | 6.74702 | 37102 ft | 487 kts | 184° |
| 2026-05-04 00:51 | 33.99479 | 6.75114 | 37108 ft | 488 kts | 184° |
| 2026-05-04 00:52 | 33.92701 | 6.75529 | 37104 ft | 488 kts | 184° |
| 2026-05-04 00:52 | 33.85922 | 6.75942 | 37104 ft | 488 kts | 184° |
| 2026-05-04 00:53 | 33.79125 | 6.76357 | 37107 ft | 489 kts | 184° |
| 2026-05-04 00:53 | 33.72327 | 6.76771 | 37116 ft | 489 kts | 184° |
| 2026-05-04 00:54 | 33.65534 | 6.77183 | 37122 ft | 489 kts | 184° |
| 2026-05-04 00:54 | 33.58737 | 6.77596 | 37124 ft | 490 kts | 184° |
| 2026-05-04 00:55 | 33.51935 | 6.78008 | 37128 ft | 489 kts | 184° |
| 2026-05-04 00:55 | 33.45164 | 6.78113 | 37130 ft | 487 kts | 185° |
| 2026-05-04 00:56 | 33.38381 | 6.78217 | 37121 ft | 487 kts | 186° |
| 2026-05-04 00:56 | 33.31614 | 6.78279 | 37119 ft | 486 kts | 186° |
| 2026-05-04 00:57 | 33.24845 | 6.78366 | 37116 ft | 486 kts | 186° |
| 2026-05-04 00:57 | 33.18075 | 6.78439 | 37107 ft | 487 kts | 186° |
| 2026-05-04 00:58 | 33.11299 | 6.78518 | 37105 ft | 488 kts | 186° |
| 2026-05-04 00:58 | 33.04513 | 6.78595 | 37108 ft | 487 kts | 186° |
| 2026-05-04 00:59 | 32.97733 | 6.78672 | 37105 ft | 488 kts | 185° |
| 2026-05-04 00:59 | 32.90936 | 6.78750 | 37103 ft | 488 kts | 185° |
| 2026-05-04 01:00 | 32.84149 | 6.78827 | 37106 ft | 487 kts | 185° |
| 2026-05-04 01:00 | 32.77367 | 6.78904 | 37107 ft | 488 kts | 185° |
| 2026-05-04 01:01 | 32.70619 | 6.78981 | 37103 ft | 488 kts | 185° |
| 2026-05-04 01:01 | 32.63791 | 6.79058 | 37100 ft | 487 kts | 185° |
| 2026-05-04 01:02 | 32.57055 | 6.79134 | 37101 ft | 488 kts | 185° |
| 2026-05-04 01:02 | 32.50259 | 6.79211 | 37102 ft | 489 kts | 185° |
| 2026-05-04 01:03 | 32.43463 | 6.79287 | 37101 ft | 488 kts | 185° |
| 2026-05-04 01:03 | 32.36666 | 6.79364 | 37097 ft | 489 kts | 185° |
| 2026-05-04 01:04 | 32.29861 | 6.79440 | 37093 ft | 490 kts | 185° |
| 2026-05-04 01:04 | 32.23042 | 6.79517 | 37098 ft | 490 kts | 185° |
| 2026-05-04 01:05 | 32.16235 | 6.79593 | 37098 ft | 489 kts | 185° |
| 2026-05-04 01:05 | 32.09431 | 6.79668 | 37091 ft | 490 kts | 185° |
| 2026-05-04 01:06 | 32.02610 | 6.79745 | 37094 ft | 490 kts | 185° |
| 2026-05-04 01:06 | 31.95788 | 6.79821 | 37089 ft | 490 kts | 185° |
| 2026-05-04 01:07 | 31.88974 | 6.79897 | 37084 ft | 489 kts | 185° |
| 2026-05-04 01:07 | 31.82167 | 6.79973 | 37089 ft | 490 kts | 185° |
| 2026-05-04 01:08 | 31.75343 | 6.80048 | 37090 ft | 491 kts | 185° |
| 2026-05-04 01:08 | 31.68523 | 6.80124 | 37081 ft | 489 kts | 185° |
| 2026-05-04 01:09 | 31.61724 | 6.80199 | 37080 ft | 488 kts | 185° |
| 2026-05-04 01:09 | 31.54928 | 6.80274 | 37072 ft | 489 kts | 185° |
| 2026-05-04 01:10 | 31.48129 | 6.80349 | 37079 ft | 488 kts | 185° |
| 2026-05-04 01:10 | 31.41333 | 6.80424 | 37076 ft | 488 kts | 185° |
| 2026-05-04 01:11 | 31.34533 | 6.80499 | 37070 ft | 489 kts | 185° |
| 2026-05-04 01:11 | 31.27769 | 6.80574 | 37067 ft | 489 kts | 185° |
| 2026-05-04 01:12 | 31.20971 | 6.80648 | 37063 ft | 488 kts | 185° |
| 2026-05-04 01:12 | 31.14174 | 6.80722 | 37064 ft | 489 kts | 185° |
| 2026-05-04 01:13 | 31.07364 | 6.80797 | 37065 ft | 489 kts | 185° |
| 2026-05-04 01:13 | 31.00561 | 6.80871 | 37064 ft | 490 kts | 185° |
| 2026-05-04 01:14 | 30.93741 | 6.80945 | 37058 ft | 491 kts | 185° |
| 2026-05-04 01:14 | 30.86917 | 6.81020 | 37059 ft | 490 kts | 185° |
| 2026-05-04 01:15 | 30.80092 | 6.81094 | 37053 ft | 490 kts | 185° |
| 2026-05-04 01:15 | 30.73263 | 6.81168 | 37055 ft | 491 kts | 185° |
| 2026-05-04 01:16 | 30.66437 | 6.81243 | 37049 ft | 490 kts | 185° |
| 2026-05-04 01:16 | 30.59613 | 6.81316 | 37046 ft | 491 kts | 185° |
| 2026-05-04 01:17 | 30.52786 | 6.81390 | 37052 ft | 490 kts | 185° |
| 2026-05-04 01:17 | 30.45961 | 6.81463 | 37050 ft | 491 kts | 185° |
| 2026-05-04 01:18 | 30.39139 | 6.81538 | 37041 ft | 490 kts | 185° |
| 2026-05-04 01:18 | 30.32337 | 6.81611 | 37046 ft | 488 kts | 185° |
| 2026-05-04 01:19 | 30.25532 | 6.81683 | 37039 ft | 489 kts | 185° |
| 2026-05-04 01:19 | 30.18720 | 6.81757 | 37039 ft | 490 kts | 185° |
| 2026-05-04 01:20 | 30.11898 | 6.81830 | 37044 ft | 491 kts | 185° |
| 2026-05-04 01:20 | 30.05067 | 6.81904 | 37041 ft | 490 kts | 185° |
| 2026-05-04 01:21 | 29.98295 | 6.81976 | 37032 ft | 490 kts | 185° |
| 2026-05-04 01:21 | 29.91476 | 6.82048 | 37020 ft | 490 kts | 185° |
| 2026-05-04 01:22 | 29.84657 | 6.82121 | 37033 ft | 490 kts | 185° |
| 2026-05-04 01:22 | 29.77838 | 6.82194 | 37021 ft | 491 kts | 185° |
| 2026-05-04 01:23 | 29.71011 | 6.82267 | 37029 ft | 491 kts | 185° |
| 2026-05-04 01:23 | 29.64178 | 6.82339 | 37022 ft | 491 kts | 185° |
| 2026-05-04 01:24 | 29.58459 | 6.82400 | 37018 ft | 491 kts | 185° |
| 2026-05-04 01:24 | 29.51627 | 6.82472 | 37020 ft | 491 kts | 185° |
| 2026-05-04 01:25 | 29.44836 | 6.82544 | 37018 ft | 491 kts | 185° |
| 2026-05-04 01:25 | 29.38009 | 6.82616 | 37019 ft | 490 kts | 185° |
| 2026-05-04 01:26 | 29.31191 | 6.82689 | 37013 ft | 490 kts | 185° |
| 2026-05-04 01:26 | 29.24352 | 6.82760 | 37014 ft | 492 kts | 185° |
| 2026-05-04 01:27 | 29.17502 | 6.82833 | 37010 ft | 493 kts | 185° |
| 2026-05-04 01:27 | 29.10640 | 6.82904 | 37009 ft | 494 kts | 185° |
| 2026-05-04 01:28 | 29.03777 | 6.82977 | 37003 ft | 493 kts | 185° |
| 2026-05-04 01:28 | 28.96928 | 6.83048 | 36999 ft | 492 kts | 185° |
| 2026-05-04 01:29 | 28.90081 | 6.83120 | 36998 ft | 492 kts | 185° |
| 2026-05-04 01:29 | 28.83234 | 6.83192 | 36998 ft | 492 kts | 185° |
| 2026-05-04 01:30 | 28.76388 | 6.83263 | 36997 ft | 492 kts | 185° |
| 2026-05-04 01:30 | 28.69546 | 6.83334 | 37001 ft | 491 kts | 185° |
| 2026-05-04 01:31 | 28.62705 | 6.83405 | 36992 ft | 492 kts | 185° |
| 2026-05-04 01:31 | 28.55860 | 6.83477 | 36992 ft | 492 kts | 185° |
| 2026-05-04 01:32 | 28.49003 | 6.83548 | 36988 ft | 492 kts | 185° |
| 2026-05-04 01:32 | 28.42168 | 6.83619 | 36988 ft | 491 kts | 185° |
| 2026-05-04 01:33 | 28.35332 | 6.83690 | 36983 ft | 491 kts | 185° |
| 2026-05-04 01:33 | 28.28505 | 6.83761 | 36981 ft | 490 kts | 185° |
| 2026-05-04 01:34 | 28.21677 | 6.83831 | 36980 ft | 491 kts | 185° |
| 2026-05-04 01:34 | 28.14844 | 6.83902 | 36982 ft | 491 kts | 185° |
| 2026-05-04 01:35 | 28.07995 | 6.84521 | 36989 ft | 496 kts | 180° |
| 2026-05-04 01:35 | 28.01128 | 6.85261 | 36982 ft | 496 kts | 180° |
| 2026-05-04 01:36 | 27.94254 | 6.86035 | 36978 ft | 496 kts | 180° |
| 2026-05-04 01:36 | 27.87376 | 6.86789 | 36971 ft | 497 kts | 180° |
| 2026-05-04 01:37 | 27.80499 | 6.87553 | 36968 ft | 496 kts | 180° |
| 2026-05-04 01:37 | 27.73626 | 6.88309 | 36968 ft | 497 kts | 180° |
| 2026-05-04 01:38 | 27.66744 | 6.89069 | 36971 ft | 497 kts | 180° |
| 2026-05-04 01:38 | 27.59863 | 6.89826 | 36972 ft | 497 kts | 180° |
| 2026-05-04 01:39 | 27.52976 | 6.90583 | 36961 ft | 498 kts | 180° |
| 2026-05-04 01:39 | 27.46074 | 6.91342 | 36961 ft | 499 kts | 180° |
| 2026-05-04 01:40 | 27.39158 | 6.92100 | 36967 ft | 500 kts | 180° |
| 2026-05-04 01:40 | 27.32237 | 6.92859 | 36964 ft | 500 kts | 180° |
| 2026-05-04 01:41 | 27.25308 | 6.93616 | 36955 ft | 500 kts | 180° |
| 2026-05-04 01:41 | 27.18374 | 6.94374 | 36957 ft | 501 kts | 180° |
| 2026-05-04 01:42 | 27.11427 | 6.95132 | 36950 ft | 502 kts | 180° |
| 2026-05-04 01:42 | 27.04475 | 6.95890 | 36950 ft | 502 kts | 181° |
| 2026-05-04 01:43 | 26.97573 | 6.96642 | 36945 ft | 502 kts | 181° |
| 2026-05-04 01:43 | 26.90621 | 6.97397 | 36952 ft | 501 kts | 181° |
| 2026-05-04 01:44 | 26.83674 | 6.98152 | 36956 ft | 503 kts | 181° |
| 2026-05-04 01:44 | 26.76704 | 6.98907 | 36951 ft | 503 kts | 181° |
| 2026-05-04 01:45 | 26.69732 | 6.99663 | 36947 ft | 503 kts | 181° |
| 2026-05-04 01:45 | 26.59282 | 7.00793 | 36943 ft | 503 kts | 181° |
| 2026-05-04 01:46 | 26.52308 | 7.01545 | 36942 ft | 504 kts | 181° |
| 2026-05-04 01:46 | 26.45330 | 7.02300 | 36948 ft | 504 kts | 181° |
| 2026-05-04 01:47 | 26.38352 | 7.03050 | 36945 ft | 504 kts | 181° |
| 2026-05-04 01:47 | 26.31416 | 7.03797 | 36954 ft | 504 kts | 181° |
| 2026-05-04 01:48 | 26.24439 | 7.04547 | 36952 ft | 504 kts | 181° |
| 2026-05-04 01:48 | 26.17452 | 7.05297 | 36959 ft | 504 kts | 181° |
| 2026-05-04 01:49 | 26.10478 | 7.06045 | 36962 ft | 502 kts | 181° |
| 2026-05-04 01:49 | 26.03515 | 7.06789 | 36969 ft | 504 kts | 181° |
| 2026-05-04 01:50 | 25.96532 | 7.07542 | 36971 ft | 503 kts | 181° |
| 2026-05-04 01:50 | 25.89594 | 7.08305 | 36992 ft | 499 kts | 181° |
| 2026-05-04 01:51 | 25.82648 | 7.09056 | 36991 ft | 504 kts | 181° |
| 2026-05-04 01:51 | 25.75663 | 7.09822 | 36992 ft | 504 kts | 181° |
| 2026-05-04 01:52 | 25.68698 | 7.10577 | 36995 ft | 503 kts | 181° |
| 2026-05-04 01:52 | 25.61735 | 7.11334 | 36993 ft | 502 kts | 181° |
| 2026-05-04 01:53 | 25.54781 | 7.12088 | 36995 ft | 502 kts | 181° |
| 2026-05-04 01:53 | 25.47824 | 7.12842 | 37001 ft | 501 kts | 181° |
| 2026-05-04 01:54 | 25.40879 | 7.13593 | 36997 ft | 502 kts | 181° |
| 2026-05-04 01:54 | 25.33927 | 7.14346 | 36993 ft | 502 kts | 181° |
| 2026-05-04 01:55 | 25.26969 | 7.15096 | 36990 ft | 503 kts | 181° |
| 2026-05-04 01:55 | 25.20001 | 7.15848 | 36987 ft | 504 kts | 181° |
| 2026-05-04 01:56 | 25.13016 | 7.16601 | 36984 ft | 504 kts | 181° |
| 2026-05-04 01:56 | 25.06055 | 7.17350 | 36995 ft | 502 kts | 181° |
| 2026-05-04 01:57 | 24.99086 | 7.18098 | 36982 ft | 503 kts | 181° |
| 2026-05-04 01:57 | 24.92127 | 7.18847 | 36985 ft | 503 kts | 181° |
| 2026-05-04 01:58 | 24.85209 | 7.19592 | 36981 ft | 502 kts | 181° |
| 2026-05-04 01:58 | 24.78256 | 7.20340 | 36980 ft | 501 kts | 181° |
| 2026-05-04 01:59 | 24.71321 | 7.21085 | 36986 ft | 500 kts | 181° |
| 2026-05-04 01:59 | 24.64393 | 7.21827 | 36983 ft | 501 kts | 181° |
| 2026-05-04 02:00 | 24.57458 | 7.22571 | 36985 ft | 500 kts | 181° |
| 2026-05-04 02:00 | 24.50529 | 7.23312 | 36982 ft | 500 kts | 181° |
| 2026-05-04 02:01 | 24.43595 | 7.24054 | 36984 ft | 501 kts | 181° |
| 2026-05-04 02:01 | 24.36649 | 7.24796 | 36987 ft | 501 kts | 181° |
| 2026-05-04 02:02 | 24.29694 | 7.25538 | 36994 ft | 502 kts | 181° |
| 2026-05-04 02:02 | 24.22730 | 7.26280 | 36997 ft | 503 kts | 181° |
| 2026-05-04 02:03 | 24.15778 | 7.27020 | 36995 ft | 502 kts | 181° |
| 2026-05-04 02:03 | 24.08828 | 7.27759 | 36996 ft | 502 kts | 181° |
| 2026-05-04 02:04 | 24.01883 | 7.28497 | 36994 ft | 501 kts | 181° |
| 2026-05-04 02:04 | 23.94939 | 7.29233 | 36995 ft | 502 kts | 181° |
| 2026-05-04 02:05 | 23.88026 | 7.29966 | 36999 ft | 503 kts | 181° |
| 2026-05-04 02:05 | 23.81070 | 7.30703 | 36987 ft | 502 kts | 181° |
| 2026-05-04 02:06 | 23.74115 | 7.31438 | 36981 ft | 502 kts | 181° |
| 2026-05-04 02:06 | 23.67164 | 7.32173 | 36977 ft | 502 kts | 181° |
| 2026-05-04 02:07 | 23.60222 | 7.32906 | 36971 ft | 500 kts | 181° |
| 2026-05-04 02:07 | 23.53298 | 7.33635 | 36964 ft | 500 kts | 181° |
| 2026-05-04 02:08 | 23.46379 | 7.34562 | 36976 ft | 501 kts | 180° |
| 2026-05-04 02:08 | 23.39454 | 7.35530 | 36966 ft | 502 kts | 179° |
| 2026-05-04 02:09 | 23.32530 | 7.36548 | 36956 ft | 502 kts | 179° |
| 2026-05-04 02:09 | 23.25605 | 7.37537 | 36950 ft | 502 kts | 179° |
| 2026-05-04 02:10 | 23.19845 | 7.38371 | 36943 ft | 502 kts | 179° |
| 2026-05-04 02:10 | 23.12933 | 7.39366 | 36945 ft | 501 kts | 179° |
| 2026-05-04 02:11 | 23.06023 | 7.40359 | 36942 ft | 501 kts | 179° |
| 2026-05-04 02:11 | 22.99102 | 7.41354 | 36937 ft | 501 kts | 179° |
| 2026-05-04 02:12 | 22.92183 | 7.42346 | 36932 ft | 501 kts | 179° |
| 2026-05-04 02:12 | 22.85265 | 7.43338 | 36930 ft | 502 kts | 179° |
| 2026-05-04 02:13 | 22.78349 | 7.44329 | 36933 ft | 501 kts | 179° |
| 2026-05-04 02:13 | 22.71426 | 7.45319 | 36934 ft | 502 kts | 179° |
| 2026-05-04 02:14 | 22.64498 | 7.46310 | 36923 ft | 502 kts | 179° |
| 2026-05-04 02:14 | 22.57578 | 7.47298 | 36922 ft | 501 kts | 179° |
| 2026-05-04 02:15 | 22.50656 | 7.48285 | 36922 ft | 502 kts | 179° |
| 2026-05-04 02:15 | 22.43732 | 7.49272 | 36913 ft | 501 kts | 179° |
| 2026-05-04 02:16 | 22.36831 | 7.50254 | 36913 ft | 500 kts | 179° |
| 2026-05-04 02:16 | 22.29982 | 7.51228 | 36911 ft | 499 kts | 179° |
| 2026-05-04 02:17 | 22.23047 | 7.52213 | 36902 ft | 500 kts | 179° |
| 2026-05-04 02:17 | 22.16191 | 7.53186 | 36902 ft | 500 kts | 179° |
| 2026-05-04 02:18 | 22.09298 | 7.54164 | 36901 ft | 499 kts | 179° |
| 2026-05-04 02:18 | 22.02417 | 7.55138 | 36897 ft | 498 kts | 179° |
| 2026-05-04 02:19 | 21.95541 | 7.56111 | 36897 ft | 498 kts | 179° |
| 2026-05-04 02:19 | 21.88670 | 7.57082 | 36896 ft | 498 kts | 179° |
| 2026-05-04 02:20 | 21.81787 | 7.58055 | 36881 ft | 499 kts | 179° |
| 2026-05-04 02:20 | 21.74905 | 7.59025 | 36885 ft | 499 kts | 179° |
| 2026-05-04 02:21 | 21.68019 | 7.59996 | 36880 ft | 499 kts | 179° |
| 2026-05-04 02:21 | 21.61136 | 7.60966 | 36879 ft | 498 kts | 179° |
| 2026-05-04 02:22 | 21.54282 | 7.61930 | 36881 ft | 496 kts | 179° |
| 2026-05-04 02:22 | 21.47431 | 7.62893 | 36879 ft | 497 kts | 179° |
| 2026-05-04 02:23 | 21.40576 | 7.63856 | 36886 ft | 497 kts | 179° |
| 2026-05-04 02:23 | 21.33733 | 7.64816 | 36875 ft | 496 kts | 179° |
| 2026-05-04 02:24 | 21.26897 | 7.65774 | 36872 ft | 495 kts | 179° |
| 2026-05-04 02:24 | 21.20123 | 7.66722 | 36871 ft | 494 kts | 179° |
| 2026-05-04 02:25 | 21.13293 | 7.67677 | 36869 ft | 495 kts | 179° |
| 2026-05-04 02:25 | 21.06455 | 7.68633 | 36870 ft | 496 kts | 179° |
| 2026-05-04 02:26 | 20.99620 | 7.69557 | 36873 ft | 491 kts | 184° |
| 2026-05-04 02:26 | 20.92971 | 7.68954 | 36889 ft | 473 kts | 202° |
| 2026-05-04 02:27 | 20.86612 | 7.67185 | 36883 ft | 473 kts | 201° |
| 2026-05-04 02:27 | 20.80256 | 7.65400 | 36897 ft | 474 kts | 201° |
| 2026-05-04 02:28 | 20.77063 | 7.64505 | 37224 ft | 473 kts | 201° |
| 2026-05-04 02:28 | 20.73889 | 7.63623 | 37662 ft | 469 kts | 201° |
| 2026-05-04 02:28 | 20.70741 | 7.62744 | 38065 ft | 467 kts | 202° |
| 2026-05-04 02:28 | 20.67610 | 7.61866 | 38457 ft | 464 kts | 202° |
| 2026-05-04 02:29 | 20.64496 | 7.60994 | 38786 ft | 462 kts | 202° |
| 2026-05-04 02:29 | 20.61392 | 7.60128 | 39014 ft | 461 kts | 202° |
| 2026-05-04 02:29 | 20.58283 | 7.59261 | 39242 ft | 461 kts | 202° |
| 2026-05-04 02:29 | 20.55182 | 7.58395 | 39472 ft | 461 kts | 202° |
| 2026-05-04 02:30 | 20.52085 | 7.57531 | 39664 ft | 460 kts | 202° |
| 2026-05-04 02:30 | 20.48986 | 7.56667 | 39870 ft | 461 kts | 201° |
| 2026-05-04 02:30 | 20.42740 | 7.54926 | 39854 ft | 463 kts | 201° |
| 2026-05-04 02:31 | 20.36539 | 7.53202 | 39850 ft | 459 kts | 202° |
| 2026-05-04 02:31 | 20.30361 | 7.51481 | 39857 ft | 459 kts | 202° |
| 2026-05-04 02:32 | 20.24238 | 7.49782 | 39860 ft | 456 kts | 202° |
| 2026-05-04 02:32 | 20.18065 | 7.48063 | 39854 ft | 460 kts | 201° |
| 2026-05-04 02:33 | 20.11881 | 7.46352 | 39857 ft | 459 kts | 201° |
| 2026-05-04 02:33 | 20.05696 | 7.44634 | 39850 ft | 459 kts | 201° |
| 2026-05-04 02:34 | 19.99509 | 7.42922 | 39845 ft | 459 kts | 201° |
| 2026-05-04 02:34 | 19.93325 | 7.41210 | 39840 ft | 459 kts | 201° |
| 2026-05-04 02:35 | 19.87143 | 7.39500 | 39844 ft | 459 kts | 201° |
| 2026-05-04 02:35 | 19.80966 | 7.37793 | 39840 ft | 458 kts | 201° |
| 2026-05-04 02:36 | 19.74802 | 7.36091 | 39842 ft | 458 kts | 201° |
| 2026-05-04 02:36 | 19.68625 | 7.34386 | 39841 ft | 459 kts | 201° |
| 2026-05-04 02:37 | 19.62478 | 7.32692 | 39836 ft | 459 kts | 201° |
| 2026-05-04 02:37 | 19.56295 | 7.30989 | 39833 ft | 459 kts | 201° |
| 2026-05-04 02:38 | 19.50111 | 7.29287 | 39835 ft | 460 kts | 201° |
| 2026-05-04 02:38 | 19.43921 | 7.27585 | 39833 ft | 459 kts | 201° |
| 2026-05-04 02:39 | 19.37735 | 7.25884 | 39829 ft | 459 kts | 201° |
| 2026-05-04 02:39 | 19.31550 | 7.24186 | 39828 ft | 459 kts | 201° |
| 2026-05-04 02:40 | 19.25367 | 7.22489 | 39824 ft | 458 kts | 201° |
| 2026-05-04 02:40 | 19.19195 | 7.20797 | 39820 ft | 458 kts | 201° |
| 2026-05-04 02:41 | 19.13012 | 7.19103 | 39815 ft | 459 kts | 201° |
| 2026-05-04 02:41 | 19.06837 | 7.17413 | 39822 ft | 458 kts | 201° |
| 2026-05-04 02:42 | 19.00670 | 7.15726 | 39818 ft | 457 kts | 200° |
| 2026-05-04 02:42 | 18.94513 | 7.14043 | 39818 ft | 457 kts | 200° |
| 2026-05-04 02:43 | 18.88353 | 7.12373 | 39818 ft | 458 kts | 200° |
| 2026-05-04 02:43 | 18.82179 | 7.10704 | 39820 ft | 458 kts | 200° |
| 2026-05-04 02:44 | 18.76002 | 7.09032 | 39824 ft | 459 kts | 200° |
| 2026-05-04 02:44 | 18.69822 | 7.07364 | 39825 ft | 459 kts | 200° |
| 2026-05-04 02:45 | 18.63635 | 7.05692 | 39824 ft | 459 kts | 200° |
| 2026-05-04 02:45 | 18.57445 | 7.04023 | 39821 ft | 459 kts | 200° |
| 2026-05-04 02:46 | 18.51256 | 7.02354 | 39819 ft | 459 kts | 200° |
| 2026-05-04 02:46 | 18.45075 | 7.00689 | 39815 ft | 459 kts | 200° |
| 2026-05-04 02:47 | 18.38889 | 6.99024 | 39813 ft | 459 kts | 200° |
| 2026-05-04 02:47 | 18.32701 | 6.97359 | 39815 ft | 459 kts | 200° |
| 2026-05-04 02:48 | 18.26558 | 6.95708 | 39813 ft | 459 kts | 200° |
| 2026-05-04 02:48 | 18.20367 | 6.94045 | 39815 ft | 459 kts | 200° |
| 2026-05-04 02:49 | 18.14163 | 6.92380 | 39814 ft | 460 kts | 200° |
| 2026-05-04 02:49 | 18.07953 | 6.90715 | 39815 ft | 461 kts | 200° |
| 2026-05-04 02:50 | 18.01744 | 6.89050 | 39813 ft | 461 kts | 200° |
| 2026-05-04 02:50 | 17.95517 | 6.87383 | 39813 ft | 461 kts | 199° |
| 2026-05-04 02:51 | 17.89301 | 6.85720 | 39815 ft | 461 kts | 200° |
| 2026-05-04 02:51 | 17.83081 | 6.84056 | 39814 ft | 462 kts | 199° |
| 2026-05-04 02:52 | 17.76860 | 6.82394 | 39817 ft | 461 kts | 199° |
| 2026-05-04 02:52 | 17.70625 | 6.80728 | 39816 ft | 463 kts | 199° |
| 2026-05-04 02:53 | 17.64382 | 6.79063 | 39819 ft | 464 kts | 199° |
| 2026-05-04 02:53 | 17.58126 | 6.77395 | 39819 ft | 464 kts | 199° |
| 2026-05-04 02:54 | 17.51868 | 6.75727 | 39821 ft | 464 kts | 199° |
| 2026-05-04 02:54 | 17.45637 | 6.74067 | 39823 ft | 466 kts | 199° |
| 2026-05-04 02:55 | 17.36212 | 6.71561 | 39824 ft | 465 kts | 199° |
| 2026-05-04 02:56 | 17.29944 | 6.69895 | 39816 ft | 464 kts | 200° |
| 2026-05-04 02:56 | 17.23681 | 6.68231 | 39817 ft | 465 kts | 199° |
| 2026-05-04 02:57 | 17.17408 | 6.66566 | 39818 ft | 466 kts | 199° |
| 2026-05-04 02:57 | 17.11123 | 6.64899 | 39818 ft | 466 kts | 199° |
| 2026-05-04 02:58 | 17.04849 | 6.63236 | 39820 ft | 465 kts | 200° |
| 2026-05-04 02:58 | 16.99593 | 6.61844 | 39812 ft | 465 kts | 199° |
| 2026-05-04 02:59 | 16.93320 | 6.60183 | 39822 ft | 465 kts | 199° |
| 2026-05-04 02:59 | 16.87053 | 6.58525 | 39820 ft | 465 kts | 199° |
| 2026-05-04 03:00 | 16.80778 | 6.56866 | 39824 ft | 466 kts | 199° |
| 2026-05-04 03:00 | 16.74485 | 6.55204 | 39823 ft | 466 kts | 199° |
| 2026-05-04 03:01 | 16.68195 | 6.53543 | 39820 ft | 466 kts | 199° |
| 2026-05-04 03:01 | 16.61953 | 6.51897 | 39818 ft | 465 kts | 199° |
| 2026-05-04 03:02 | 16.55679 | 6.50242 | 39819 ft | 465 kts | 199° |
| 2026-05-04 03:02 | 16.49410 | 6.48591 | 39823 ft | 465 kts | 199° |
| 2026-05-04 03:03 | 16.43134 | 6.46938 | 39821 ft | 465 kts | 199° |
| 2026-05-04 03:03 | 16.36858 | 6.45287 | 39823 ft | 465 kts | 199° |
| 2026-05-04 03:04 | 16.30575 | 6.43635 | 39822 ft | 466 kts | 199° |
| 2026-05-04 03:04 | 16.24288 | 6.41983 | 39825 ft | 466 kts | 199° |
| 2026-05-04 03:05 | 16.18003 | 6.40332 | 39832 ft | 466 kts | 199° |
| 2026-05-04 03:05 | 16.11709 | 6.38681 | 39832 ft | 466 kts | 199° |
| 2026-05-04 03:06 | 16.05423 | 6.37033 | 39827 ft | 465 kts | 199° |
| 2026-05-04 03:06 | 15.99155 | 6.35390 | 39825 ft | 464 kts | 199° |
| 2026-05-04 03:07 | 15.92942 | 6.33725 | 39829 ft | 464 kts | 199° |
| 2026-05-04 03:07 | 15.86680 | 6.32054 | 39823 ft | 466 kts | 199° |
| 2026-05-04 03:08 | 15.80399 | 6.30380 | 39826 ft | 466 kts | 199° |
| 2026-05-04 03:08 | 15.74111 | 6.28703 | 39824 ft | 467 kts | 199° |
| 2026-05-04 03:09 | 15.67824 | 6.27029 | 39821 ft | 467 kts | 199° |
| 2026-05-04 03:09 | 15.61533 | 6.25353 | 39822 ft | 466 kts | 199° |
| 2026-05-04 03:10 | 15.55242 | 6.23680 | 39822 ft | 467 kts | 199° |
| 2026-05-04 03:10 | 15.48946 | 6.22006 | 39824 ft | 468 kts | 198° |
| 2026-05-04 03:11 | 15.42628 | 6.20327 | 39827 ft | 469 kts | 198° |
| 2026-05-04 03:11 | 15.36309 | 6.18649 | 39827 ft | 469 kts | 198° |
| 2026-05-04 03:12 | 15.29987 | 6.16972 | 39832 ft | 468 kts | 198° |
| 2026-05-04 03:12 | 15.23744 | 6.15316 | 39829 ft | 468 kts | 198° |
| 2026-05-04 03:13 | 15.17351 | 6.13621 | 39831 ft | 469 kts | 198° |
| 2026-05-04 03:13 | 15.11066 | 6.11957 | 39835 ft | 469 kts | 198° |
| 2026-05-04 03:14 | 15.04748 | 6.10284 | 39837 ft | 468 kts | 198° |
| 2026-05-04 03:14 | 14.98445 | 6.08616 | 39837 ft | 467 kts | 198° |
| 2026-05-04 03:15 | 14.92158 | 6.06954 | 39836 ft | 467 kts | 198° |
| 2026-05-04 03:15 | 14.85862 | 6.05290 | 39839 ft | 467 kts | 198° |
| 2026-05-04 03:16 | 14.79563 | 6.03627 | 39833 ft | 467 kts | 198° |
| 2026-05-04 03:16 | 14.73258 | 6.01963 | 39838 ft | 468 kts | 198° |
| 2026-05-04 03:17 | 14.66946 | 6.00298 | 39841 ft | 468 kts | 198° |
| 2026-05-04 03:17 | 14.60637 | 5.98635 | 39834 ft | 468 kts | 198° |
| 2026-05-04 03:18 | 14.54324 | 5.96971 | 39835 ft | 469 kts | 198° |
| 2026-05-04 03:18 | 14.48000 | 5.95306 | 39837 ft | 470 kts | 198° |
| 2026-05-04 03:19 | 14.41665 | 5.93640 | 39836 ft | 469 kts | 198° |
| 2026-05-04 03:19 | 14.35341 | 5.91976 | 39835 ft | 469 kts | 198° |
| 2026-05-04 03:20 | 14.29009 | 5.90312 | 39835 ft | 470 kts | 198° |
| 2026-05-04 03:20 | 14.22709 | 5.88657 | 39836 ft | 470 kts | 198° |
| 2026-05-04 03:21 | 14.16364 | 5.86992 | 39836 ft | 470 kts | 198° |
| 2026-05-04 03:21 | 14.10033 | 5.85330 | 39827 ft | 469 kts | 198° |
| 2026-05-04 03:22 | 14.03712 | 5.83673 | 39828 ft | 468 kts | 198° |
| 2026-05-04 03:22 | 13.97388 | 5.82015 | 39826 ft | 470 kts | 198° |
| 2026-05-04 03:23 | 13.91040 | 5.80353 | 39829 ft | 471 kts | 198° |
| 2026-05-04 03:23 | 13.84697 | 5.78692 | 39828 ft | 470 kts | 198° |
| 2026-05-04 03:24 | 13.78358 | 5.77003 | 39835 ft | 469 kts | 202° |
| 2026-05-04 03:24 | 13.72608 | 5.74007 | 39827 ft | 465 kts | 214° |
| 2026-05-04 03:25 | 13.67097 | 5.70512 | 39847 ft | 465 kts | 214° |
| 2026-05-04 03:25 | 13.61591 | 5.66999 | 39848 ft | 466 kts | 214° |
| 2026-05-04 03:26 | 13.56066 | 5.63490 | 39848 ft | 467 kts | 214° |
| 2026-05-04 03:26 | 13.50540 | 5.59973 | 39848 ft | 468 kts | 214° |
| 2026-05-04 03:27 | 13.45000 | 5.56454 | 39853 ft | 469 kts | 214° |
| 2026-05-04 03:27 | 13.39454 | 5.52932 | 39854 ft | 468 kts | 214° |
| 2026-05-04 03:28 | 13.33915 | 5.49417 | 39849 ft | 468 kts | 214° |
| 2026-05-04 03:28 | 13.28380 | 5.45905 | 39845 ft | 468 kts | 214° |
| 2026-05-04 03:29 | 13.22830 | 5.42386 | 39850 ft | 469 kts | 214° |
| 2026-05-04 03:29 | 13.17277 | 5.38867 | 39853 ft | 469 kts | 214° |
| 2026-05-04 03:30 | 13.11724 | 5.35350 | 39850 ft | 468 kts | 214° |
| 2026-05-04 03:30 | 13.06186 | 5.31845 | 39846 ft | 468 kts | 214° |
| 2026-05-04 03:31 | 13.00684 | 5.28362 | 39848 ft | 468 kts | 214° |
| 2026-05-04 03:31 | 12.95139 | 5.24850 | 39851 ft | 469 kts | 214° |
| 2026-05-04 03:32 | 12.89394 | 5.21579 | 39850 ft | 471 kts | 208° |
| 2026-05-04 03:32 | 12.83513 | 5.18600 | 39855 ft | 471 kts | 208° |
| 2026-05-04 03:33 | 12.77619 | 5.15643 | 39856 ft | 472 kts | 208° |
| 2026-05-04 03:33 | 12.71755 | 5.12692 | 39865 ft | 473 kts | 208° |
| 2026-05-04 03:34 | 12.65844 | 5.09722 | 39863 ft | 473 kts | 208° |
| 2026-05-04 03:34 | 12.59933 | 5.06754 | 39865 ft | 473 kts | 208° |
| 2026-05-04 03:35 | 12.54015 | 5.03783 | 39865 ft | 474 kts | 208° |
| 2026-05-04 03:35 | 12.48082 | 5.00806 | 39870 ft | 475 kts | 208° |
| 2026-05-04 03:36 | 12.42152 | 4.97832 | 39870 ft | 475 kts | 208° |
| 2026-05-04 03:36 | 12.36220 | 4.94859 | 39864 ft | 475 kts | 208° |
| 2026-05-04 03:37 | 12.30284 | 4.91885 | 39865 ft | 475 kts | 208° |
| 2026-05-04 03:37 | 12.24335 | 4.88906 | 39870 ft | 476 kts | 208° |
| 2026-05-04 03:38 | 12.18390 | 4.85932 | 39869 ft | 475 kts | 208° |
| 2026-05-04 03:38 | 12.12454 | 4.82962 | 39864 ft | 475 kts | 208° |
| 2026-05-04 03:39 | 12.06524 | 4.79998 | 39865 ft | 474 kts | 208° |
| 2026-05-04 03:39 | 12.00597 | 4.77035 | 39867 ft | 474 kts | 208° |
| 2026-05-04 03:40 | 11.94664 | 4.74072 | 39871 ft | 475 kts | 208° |
| 2026-05-04 03:40 | 11.88711 | 4.71100 | 39873 ft | 476 kts | 208° |
| 2026-05-04 03:41 | 11.82755 | 4.68129 | 39879 ft | 477 kts | 208° |
| 2026-05-04 03:41 | 11.76802 | 4.65160 | 39877 ft | 475 kts | 208° |
| 2026-05-04 03:42 | 11.70866 | 4.62201 | 39874 ft | 474 kts | 208° |
| 2026-05-04 03:42 | 11.64939 | 4.59247 | 39875 ft | 474 kts | 208° |
| 2026-05-04 03:43 | 11.59046 | 4.56313 | 39878 ft | 476 kts | 208° |
| 2026-05-04 03:43 | 11.53090 | 4.53344 | 39885 ft | 477 kts | 208° |
| 2026-05-04 03:44 | 11.47122 | 4.50372 | 39883 ft | 477 kts | 208° |
| 2026-05-04 03:44 | 11.41168 | 4.47407 | 39880 ft | 476 kts | 208° |
| 2026-05-04 03:45 | 11.35234 | 4.44454 | 39875 ft | 474 kts | 208° |
| 2026-05-04 03:45 | 11.29306 | 4.41505 | 39873 ft | 474 kts | 208° |
| 2026-05-04 03:46 | 11.24334 | 4.39033 | 39872 ft | 474 kts | 208° |
| 2026-05-04 03:46 | 11.18445 | 4.36106 | 39879 ft | 474 kts | 208° |
| 2026-05-04 03:47 | 11.12523 | 4.33165 | 39876 ft | 474 kts | 208° |
| 2026-05-04 03:47 | 11.06598 | 4.30222 | 39880 ft | 473 kts | 208° |
| 2026-05-04 03:48 | 11.00673 | 4.27282 | 39883 ft | 474 kts | 208° |
| 2026-05-04 03:48 | 10.94731 | 4.24334 | 39891 ft | 476 kts | 208° |
| 2026-05-04 03:49 | 10.88775 | 4.21381 | 39887 ft | 477 kts | 208° |
| 2026-05-04 03:49 | 10.82818 | 4.18428 | 39891 ft | 475 kts | 208° |
| 2026-05-04 03:50 | 10.76878 | 4.15485 | 39888 ft | 474 kts | 208° |
| 2026-05-04 03:50 | 10.70944 | 4.12547 | 39888 ft | 475 kts | 208° |
| 2026-05-04 03:51 | 10.65009 | 4.09595 | 39891 ft | 475 kts | 209° |
| 2026-05-04 03:51 | 10.59085 | 4.06610 | 39890 ft | 476 kts | 208° |
| 2026-05-04 03:52 | 10.53130 | 4.03636 | 39898 ft | 477 kts | 208° |
| 2026-05-04 03:52 | 10.47172 | 4.00648 | 39915 ft | 477 kts | 208° |
| 2026-05-04 03:53 | 10.41218 | 3.97670 | 39905 ft | 477 kts | 208° |
| 2026-05-04 03:53 | 10.35273 | 3.94694 | 39903 ft | 476 kts | 208° |
| 2026-05-04 03:54 | 10.29377 | 3.91745 | 39905 ft | 475 kts | 208° |
| 2026-05-04 03:54 | 10.23436 | 3.88775 | 39905 ft | 476 kts | 208° |
| 2026-05-04 03:55 | 10.17488 | 3.85802 | 39913 ft | 477 kts | 208° |
| 2026-05-04 03:55 | 10.11523 | 3.82823 | 39921 ft | 478 kts | 208° |
| 2026-05-04 03:56 | 10.05549 | 3.79840 | 39916 ft | 479 kts | 208° |
| 2026-05-04 03:56 | 9.99583 | 3.76862 | 39903 ft | 478 kts | 208° |
| 2026-05-04 03:57 | 9.93621 | 3.73888 | 39902 ft | 477 kts | 208° |
| 2026-05-04 03:57 | 9.87670 | 3.70921 | 39919 ft | 476 kts | 208° |
| 2026-05-04 03:58 | 9.78751 | 3.66475 | 39907 ft | 477 kts | 208° |
| 2026-05-04 03:58 | 9.72798 | 3.63510 | 39909 ft | 476 kts | 208° |
| 2026-05-04 03:59 | 9.66855 | 3.60550 | 39920 ft | 476 kts | 208° |
| 2026-05-04 03:59 | 9.60925 | 3.57598 | 39924 ft | 475 kts | 208° |
| 2026-05-04 04:00 | 9.54972 | 3.54636 | 39928 ft | 476 kts | 208° |
| 2026-05-04 04:00 | 9.48948 | 3.51843 | 39945 ft | 478 kts | 198° |
| 2026-05-04 04:01 | 9.42345 | 3.50817 | 39939 ft | 484 kts | 186° |
| 2026-05-04 04:01 | 9.35624 | 3.50373 | 39931 ft | 484 kts | 186° |
| 2026-05-04 04:02 | 9.28909 | 3.49908 | 39948 ft | 483 kts | 186° |
| 2026-05-04 04:02 | 9.22214 | 3.49452 | 39938 ft | 482 kts | 186° |
| 2026-05-04 04:03 | 9.15520 | 3.48995 | 39949 ft | 482 kts | 186° |
| 2026-05-04 04:03 | 9.08864 | 3.48539 | 39942 ft | 483 kts | 186° |
| 2026-05-04 04:04 | 9.02149 | 3.48082 | 39944 ft | 484 kts | 186° |
| 2026-05-04 04:04 | 8.95388 | 3.47620 | 39946 ft | 484 kts | 186° |
| 2026-05-04 04:05 | 8.88657 | 3.47161 | 39958 ft | 485 kts | 186° |
| 2026-05-04 04:05 | 8.81927 | 3.46702 | 39964 ft | 485 kts | 186° |
| 2026-05-04 04:06 | 8.78572 | 3.46474 | 39858 ft | 479 kts | 186° |
| 2026-05-04 04:06 | 8.75244 | 3.46247 | 39004 ft | 483 kts | 186° |
| 2026-05-04 04:06 | 8.71928 | 3.46020 | 38198 ft | 485 kts | 186° |
| 2026-05-04 04:06 | 8.68577 | 3.45792 | 37528 ft | 482 kts | 186° |
| 2026-05-04 04:07 | 8.65236 | 3.45565 | 36838 ft | 480 kts | 186° |
| 2026-05-04 04:07 | 8.61905 | 3.45338 | 36109 ft | 479 kts | 186° |
| 2026-05-04 04:07 | 8.58580 | 3.45111 | 35349 ft | 481 kts | 186° |
| 2026-05-04 04:07 | 8.55228 | 3.44882 | 34583 ft | 485 kts | 186° |
| 2026-05-04 04:08 | 8.51846 | 3.44654 | 33713 ft | 488 kts | 185° |
| 2026-05-04 04:08 | 8.48460 | 3.44436 | 32849 ft | 487 kts | 185° |
| 2026-05-04 04:08 | 8.45085 | 3.44219 | 31962 ft | 486 kts | 185° |
| 2026-05-04 04:08 | 8.41704 | 3.43997 | 31046 ft | 486 kts | 185° |
| 2026-05-04 04:09 | 8.38325 | 3.43773 | 30110 ft | 487 kts | 184° |
| 2026-05-04 04:09 | 8.34946 | 3.43552 | 29148 ft | 485 kts | 184° |
| 2026-05-04 04:09 | 8.31588 | 3.43333 | 28236 ft | 482 kts | 184° |
| 2026-05-04 04:09 | 8.28258 | 3.43113 | 27339 ft | 479 kts | 184° |
| 2026-05-04 04:10 | 8.24945 | 3.42883 | 26448 ft | 476 kts | 184° |
| 2026-05-04 04:10 | 8.21681 | 3.42658 | 26117 ft | 463 kts | 183° |
| 2026-05-04 04:10 | 8.18524 | 3.42445 | 25970 ft | 445 kts | 183° |
| 2026-05-04 04:10 | 8.15493 | 3.42241 | 25821 ft | 429 kts | 183° |
| 2026-05-04 04:11 | 8.12569 | 3.42042 | 25678 ft | 414 kts | 183° |
| 2026-05-04 04:11 | 8.09806 | 3.41853 | 25516 ft | 384 kts | 183° |
| 2026-05-04 04:11 | 8.07230 | 3.41677 | 25359 ft | 358 kts | 183° |
| 2026-05-04 04:11 | 8.04829 | 3.41515 | 25207 ft | 334 kts | 183° |
| 2026-05-04 04:12 | 8.02582 | 3.41363 | 25062 ft | 313 kts | 182° |
| 2026-05-04 04:12 | 8.00479 | 3.41220 | 24916 ft | 294 kts | 182° |
| 2026-05-04 04:12 | 7.98446 | 3.41083 | 24821 ft | 293 kts | 182° |
| 2026-05-04 04:12 | 7.96390 | 3.40945 | 24758 ft | 300 kts | 182° |
| 2026-05-04 04:13 | 7.94294 | 3.40803 | 24712 ft | 303 kts | 182° |
| 2026-05-04 04:13 | 7.92222 | 3.40661 | 24611 ft | 295 kts | 182° |
| 2026-05-04 04:13 | 7.90170 | 3.40522 | 24396 ft | 297 kts | 182° |
| 2026-05-04 04:13 | 7.88096 | 3.40382 | 24166 ft | 300 kts | 182° |
| 2026-05-04 04:14 | 7.86014 | 3.40240 | 23902 ft | 299 kts | 182° |
| 2026-05-04 04:14 | 7.83951 | 3.40100 | 23637 ft | 296 kts | 182° |
| 2026-05-04 04:14 | 7.81907 | 3.39961 | 23345 ft | 292 kts | 182° |
| 2026-05-04 04:14 | 7.79887 | 3.39824 | 23079 ft | 291 kts | 182° |
| 2026-05-04 04:15 | 7.77862 | 3.39688 | 22790 ft | 294 kts | 182° |
| 2026-05-04 04:15 | 7.75803 | 3.39555 | 22381 ft | 298 kts | 181° |
| 2026-05-04 04:15 | 7.73725 | 3.39422 | 21981 ft | 299 kts | 181° |
| 2026-05-04 04:15 | 7.71651 | 3.39286 | 21587 ft | 299 kts | 181° |
| 2026-05-04 04:16 | 7.69574 | 3.39151 | 21187 ft | 299 kts | 181° |
| 2026-05-04 04:16 | 7.67499 | 3.39017 | 20796 ft | 300 kts | 181° |
| 2026-05-04 04:16 | 7.65413 | 3.38881 | 20399 ft | 301 kts | 180° |
| 2026-05-04 04:16 | 7.63321 | 3.38745 | 20003 ft | 301 kts | 180° |
| 2026-05-04 04:17 | 7.61224 | 3.38609 | 19604 ft | 303 kts | 180° |
| 2026-05-04 04:17 | 7.59120 | 3.38472 | 19204 ft | 304 kts | 180° |
| 2026-05-04 04:17 | 7.57005 | 3.38335 | 18827 ft | 305 kts | 179° |
| 2026-05-04 04:17 | 7.54881 | 3.38197 | 18429 ft | 307 kts | 179° |
| 2026-05-04 04:18 | 7.52748 | 3.38058 | 17988 ft | 308 kts | 179° |
| 2026-05-04 04:18 | 7.50642 | 3.37922 | 17570 ft | 307 kts | 179° |
| 2026-05-04 04:18 | 7.48488 | 3.37782 | 17173 ft | 306 kts | 179° |
| 2026-05-04 04:18 | 7.46394 | 3.37645 | 16768 ft | 305 kts | 179° |
| 2026-05-04 04:19 | 7.44254 | 3.37507 | 16357 ft | 304 kts | 179° |
| 2026-05-04 04:19 | 7.42140 | 3.37369 | 15953 ft | 304 kts | 179° |
| 2026-05-04 04:19 | 7.40056 | 3.37234 | 15550 ft | 304 kts | 178° |
| 2026-05-04 04:19 | 7.37950 | 3.37098 | 15150 ft | 303 kts | 178° |
| 2026-05-04 04:20 | 7.35851 | 3.36961 | 14751 ft | 302 kts | 178° |
| 2026-05-04 04:20 | 7.33755 | 3.36826 | 14350 ft | 301 kts | 178° |
| 2026-05-04 04:20 | 7.31684 | 3.36690 | 13951 ft | 295 kts | 178° |
| 2026-05-04 04:20 | 7.29659 | 3.36557 | 13537 ft | 288 kts | 178° |
| 2026-05-04 04:21 | 7.27687 | 3.36429 | 13145 ft | 280 kts | 178° |
| 2026-05-04 04:21 | 7.25765 | 3.36305 | 12775 ft | 273 kts | 178° |
| 2026-05-04 04:21 | 7.23897 | 3.36183 | 12415 ft | 265 kts | 177° |
| 2026-05-04 04:21 | 7.22078 | 3.36065 | 12070 ft | 258 kts | 177° |
| 2026-05-04 04:22 | 7.20305 | 3.35951 | 11737 ft | 252 kts | 177° |
| 2026-05-04 04:22 | 7.18570 | 3.35839 | 11404 ft | 248 kts | 177° |
| 2026-05-04 04:22 | 7.16862 | 3.35729 | 11080 ft | 245 kts | 176° |
| 2026-05-04 04:22 | 7.15152 | 3.35620 | 10763 ft | 247 kts | 176° |
| 2026-05-04 04:23 | 7.13439 | 3.35509 | 10439 ft | 246 kts | 176° |
| 2026-05-04 04:23 | 7.11729 | 3.35397 | 10118 ft | 246 kts | 176° |
| 2026-05-04 04:23 | 7.10022 | 3.35287 | 9793 ft | 245 kts | 176° |
| 2026-05-04 04:23 | 7.08320 | 3.35177 | 9446 ft | 244 kts | 177° |
| 2026-05-04 04:24 | 7.06629 | 3.35068 | 9124 ft | 243 kts | 177° |
| 2026-05-04 04:24 | 7.04954 | 3.34958 | 8808 ft | 240 kts | 178° |
| 2026-05-04 04:24 | 7.03295 | 3.34851 | 8486 ft | 238 kts | 178° |
| 2026-05-04 04:24 | 7.01649 | 3.34744 | 8172 ft | 236 kts | 178° |
| 2026-05-04 04:25 | 7.00017 | 3.34639 | 7860 ft | 234 kts | 179° |
| 2026-05-04 04:25 | 6.98399 | 3.34534 | 7551 ft | 232 kts | 179° |
| 2026-05-04 04:25 | 6.96794 | 3.34429 | 7246 ft | 230 kts | 179° |
| 2026-05-04 04:25 | 6.95205 | 3.34328 | 6946 ft | 229 kts | 180° |
| 2026-05-04 04:26 | 6.93619 | 3.34226 | 6646 ft | 228 kts | 180° |
| 2026-05-04 04:26 | 6.92040 | 3.34123 | 6346 ft | 227 kts | 181° |
| 2026-05-04 04:26 | 6.90468 | 3.34020 | 6031 ft | 225 kts | 181° |
| 2026-05-04 04:26 | 6.88912 | 3.33920 | 5728 ft | 223 kts | 182° |
| 2026-05-04 04:27 | 6.87371 | 3.33820 | 5434 ft | 221 kts | 182° |
| 2026-05-04 04:27 | 6.85843 | 3.33721 | 5143 ft | 219 kts | 182° |
| 2026-05-04 04:27 | 6.84329 | 3.33623 | 4854 ft | 217 kts | 183° |
| 2026-05-04 04:27 | 6.82827 | 3.33526 | 4558 ft | 216 kts | 183° |
| 2026-05-04 04:28 | 6.81338 | 3.33429 | 4263 ft | 214 kts | 183° |
| 2026-05-04 04:28 | 6.79864 | 3.33334 | 3993 ft | 212 kts | 184° |
| 2026-05-04 04:28 | 6.78403 | 3.33239 | 3732 ft | 208 kts | 184° |
| 2026-05-04 04:28 | 6.77000 | 3.33149 | 3498 ft | 195 kts | 184° |
| 2026-05-04 04:29 | 6.75670 | 3.33063 | 3228 ft | 188 kts | 184° |
| 2026-05-04 04:29 | 6.74384 | 3.32979 | 2987 ft | 182 kts | 185° |
| 2026-05-04 04:29 | 6.73136 | 3.32883 | 2756 ft | 177 kts | 185° |
| 2026-05-04 04:29 | 6.71949 | 3.32853 | 2539 ft | 168 kts | 182° |
| 2026-05-04 04:30 | 6.70814 | 3.32845 | 2315 ft | 158 kts | 181° |
| 2026-05-04 04:30 | 6.69731 | 3.32851 | 2121 ft | 153 kts | 181° |
| 2026-05-04 04:30 | 6.68702 | 3.32857 | 1931 ft | 144 kts | 181° |
| 2026-05-04 04:30 | 6.67712 | 3.32863 | 1750 ft | 142 kts | 181° |
| 2026-05-04 04:31 | 6.66719 | 3.32867 | 1587 ft | 143 kts | 181° |
| 2026-05-04 04:31 | 6.65723 | 3.32852 | 1437 ft | 143 kts | 182° |
| 2026-05-04 04:31 | 6.64717 | 3.32836 | 1274 ft | 145 kts | 182° |
| 2026-05-04 04:31 | 6.63700 | 3.32828 | 1055 ft | 148 kts | 181° |
| 2026-05-04 04:32 | 6.62676 | 3.32841 | 825 ft | 147 kts | 180° |
| 2026-05-04 04:32 | 6.61648 | 3.32856 | 595 ft | 148 kts | 180° |
| 2026-05-04 04:32 | 6.60964 | 3.32866 | 445 ft | 150 kts | 179° |
| 2026-05-04 04:32 | 6.59578 | 3.32887 | 170 ft | 148 kts | 179° |
| 2026-05-04 04:33 | 6.58937 | 3.32893 | 136 ft | 121 kts | 179° |
| 2026-05-04 04:33 | 6.58340 | 3.32901 | 123 ft | 56 kts | 179° |
| 2026-05-04 04:33 | 6.58073 | 3.32896 | 117 ft | 12 kts | 210° |
| 2026-05-04 04:33 | 6.58055 | 3.32848 | 115 ft | 6 kts | 268° |
| 2026-05-04 04:34 | 6.58054 | 3.32799 | 116 ft | 8 kts | 268° |
| 2026-05-04 04:34 | 6.58052 | 3.32732 | 117 ft | 11 kts | 270° |
| 2026-05-04 04:34 | 6.58074 | 3.32640 | 110 ft | 18 kts | 291° |
| 2026-05-04 04:34 | 6.58103 | 3.32522 | 101 ft | 8 kts | 234° |
| 2026-05-04 04:35 | 6.58035 | 3.32490 | 101 ft | 15 kts | 201° |
| 2026-05-04 04:35 | 6.57932 | 3.32449 | 101 ft | 15 kts | 202° |
| 2026-05-04 04:35 | 6.57858 | 3.32440 | 102 ft | 11 kts | 167° |
| 2026-05-04 04:35 | 6.57825 | 3.32448 | 102 ft | 0 kts | 164° |